createdAt,value
2018-11-05T07:30:59.234Z,39.40
2018-11-05T07:33:28.962Z,39.80
2018-11-05T07:35:59.883Z,39.00
2018-11-05T07:38:28.998Z,38.40
2018-11-05T07:40:58.765Z,37.90
2018-11-05T07:43:28.133Z,37.60
2018-11-05T07:45:57.264Z,37.40
2018-11-05T07:48:26.506Z,37.20
2018-11-05T07:50:56.506Z,37.20
2018-11-05T07:53:27.824Z,37.20
2018-11-05T07:55:57.641Z,37.10
2018-11-05T07:58:26.963Z,37.00
2018-11-05T08:00:57.601Z,36.90
2018-11-05T08:03:28.204Z,37.10
2018-11-05T08:05:58.070Z,36.90
2018-11-05T08:08:28.514Z,37.00
2018-11-05T08:10:57.561Z,36.80
2018-11-05T08:13:26.806Z,36.80
2018-11-05T08:15:55.980Z,36.80
2018-11-05T08:18:25.070Z,36.70
2018-11-05T08:20:54.290Z,36.70
2018-11-05T08:23:25.171Z,36.60
2018-11-05T08:25:55.170Z,36.60
2018-11-05T08:28:24.256Z,36.50
2018-11-05T08:30:54.142Z,36.50
2018-11-05T08:33:24.506Z,36.00
2018-11-05T08:35:53.706Z,36.40
2018-11-05T08:38:22.805Z,36.50
2018-11-05T08:40:52.050Z,36.60
2018-11-05T08:43:21.710Z,36.60
2018-11-05T08:45:50.981Z,36.60
2018-11-05T08:48:20.529Z,36.60
2018-11-05T08:50:50.431Z,36.60
2018-11-05T08:53:21.067Z,36.50
2018-11-05T08:55:50.975Z,36.50
2018-11-05T08:58:20.606Z,36.50
2018-11-05T09:01:20.833Z,36.40
2018-11-05T09:03:51.265Z,36.40
2018-11-05T09:06:20.375Z,36.40
2018-11-05T09:08:53.299Z,36.40
2018-11-05T09:11:22.776Z,36.40
2018-11-05T09:13:51.582Z,36.30
2018-11-05T09:16:21.385Z,36.30
2018-11-05T09:18:51.769Z,36.30
2018-11-05T09:21:21.618Z,36.20
2018-11-05T09:23:51.945Z,36.20
2018-11-05T09:26:21.221Z,36.20
2018-11-05T09:28:51.161Z,36.20
2018-11-05T09:31:20.943Z,36.10
2018-11-05T09:33:50.603Z,36.10
2018-11-05T09:36:20.006Z,36.10
2018-11-05T09:38:50.353Z,36.10
2018-11-05T09:41:19.638Z,36.50
2018-11-05T09:43:49.242Z,36.10
2018-11-05T09:46:18.973Z,36.00
2018-11-05T09:48:49.162Z,36.00
2018-11-05T09:51:18.304Z,35.90
2018-11-05T09:53:48.429Z,35.90
2018-11-05T09:56:17.559Z,35.80
2018-11-05T09:58:46.673Z,35.80
2018-11-05T10:01:16.597Z,35.80
2018-11-05T10:03:51.908Z,35.80
2018-11-05T10:06:21.410Z,35.80
2018-11-05T10:08:51.496Z,35.80
2018-11-05T10:11:20.956Z,35.70
2018-11-05T10:13:50.051Z,35.80
2018-11-05T10:16:19.375Z,35.70
2018-11-05T10:18:49.598Z,35.60
2018-11-05T10:21:18.778Z,35.60
2018-11-05T10:23:48.334Z,35.60
2018-11-05T10:26:18.341Z,35.60
2018-11-05T10:28:47.616Z,35.70
2018-11-05T10:31:24.271Z,35.60
2018-11-05T10:33:54.928Z,35.50
2018-11-05T10:36:24.630Z,35.40
2018-11-05T10:38:53.698Z,35.40
2018-11-05T10:41:22.877Z,35.50
2018-11-05T10:43:51.959Z,35.40
2018-11-05T10:46:21.797Z,35.40
2018-11-05T10:48:50.925Z,35.50
2018-11-05T10:51:20.119Z,35.40
2018-11-05T10:53:49.994Z,35.40
2018-11-05T10:56:19.799Z,35.30
2018-11-05T10:58:49.002Z,35.30
2018-11-05T11:01:22.366Z,35.40
2018-11-05T11:03:59.906Z,35.30
2018-11-05T11:06:29.534Z,35.30
2018-11-05T11:08:58.944Z,35.30
2018-11-05T11:11:28.268Z,35.30
2018-11-05T11:13:58.118Z,35.40
2018-11-05T11:16:29.151Z,35.30
2018-11-05T11:18:58.286Z,35.30
2018-11-05T11:21:27.598Z,35.20
2018-11-05T11:23:57.440Z,35.30
2018-11-05T11:26:26.625Z,35.20
2018-11-05T11:28:56.632Z,35.20
2018-11-05T11:31:26.091Z,35.30
2018-11-05T11:33:56.026Z,35.20
2018-11-05T11:36:26.181Z,35.10
2018-11-05T11:38:55.451Z,35.00
2018-11-05T11:41:24.571Z,35.00
2018-11-05T11:44:02.466Z,35.00
2018-11-05T11:46:32.709Z,34.90
2018-11-05T11:49:02.411Z,34.90
2018-11-05T11:51:31.972Z,35.00
2018-11-05T11:54:01.756Z,34.90
2018-11-05T11:56:30.911Z,34.90
2018-11-05T11:59:00.854Z,34.90
2018-11-05T12:01:34.994Z,35.00
2018-11-05T12:04:05.585Z,34.90
2018-11-05T12:06:34.721Z,34.90
2018-11-05T12:09:05.863Z,34.90
2018-11-05T12:11:35.588Z,34.90
2018-11-05T12:14:07.570Z,34.60
2018-11-05T12:16:36.562Z,34.60
2018-11-05T12:19:06.782Z,34.80
2018-11-05T12:21:36.006Z,34.60
2018-11-05T12:24:06.385Z,34.70
2018-11-05T12:26:35.617Z,34.70
2018-11-05T12:29:04.874Z,34.40
2018-11-05T12:31:34.790Z,34.30
2018-11-05T12:34:06.733Z,34.30
2018-11-05T12:36:35.916Z,34.30
2018-11-05T12:39:08.570Z,34.30
2018-11-05T12:41:38.390Z,34.30
2018-11-05T12:44:08.898Z,34.40
2018-11-05T12:46:38.799Z,34.40
2018-11-05T12:49:07.930Z,34.40
2018-11-05T12:51:37.700Z,34.50
2018-11-05T12:54:08.286Z,35.10
2018-11-05T12:56:37.373Z,34.50
2018-11-05T12:59:07.022Z,34.50
2018-11-05T13:01:36.331Z,34.60
2018-11-05T13:04:06.192Z,34.50
2018-11-05T13:06:35.466Z,34.60
2018-11-05T13:09:08.273Z,34.50
2018-11-05T13:11:39.501Z,34.50
2018-11-05T13:14:08.619Z,34.60
2018-11-05T13:16:38.338Z,34.80
2018-11-05T13:19:07.455Z,34.60
2018-11-05T13:21:36.537Z,34.60
2018-11-05T13:24:06.707Z,34.60
2018-11-05T13:26:36.286Z,34.50
2018-11-05T13:29:05.750Z,34.60
2018-11-05T13:31:35.481Z,34.60
2018-11-05T13:34:05.432Z,34.60
2018-11-05T13:36:34.976Z,34.60
2018-11-05T13:39:05.478Z,34.60
2018-11-05T13:41:34.584Z,34.60
2018-11-05T13:44:04.109Z,34.60
2018-11-05T13:46:33.988Z,34.70
2018-11-05T13:49:03.162Z,34.70
2018-11-05T13:51:32.091Z,34.60
2018-11-05T13:54:01.979Z,34.60
2018-11-05T13:56:31.022Z,34.60
2018-11-05T13:59:00.236Z,34.60
2018-11-05T14:01:30.386Z,34.50
2018-11-05T14:04:00.774Z,34.60
2018-11-05T14:06:29.921Z,34.50
2018-11-05T14:08:59.830Z,35.20
2018-11-05T14:11:30.189Z,34.60
2018-11-05T14:13:59.389Z,34.50
2018-11-05T14:16:29.953Z,34.50
2018-11-05T14:18:59.711Z,34.50
2018-11-05T14:21:28.792Z,34.60
2018-11-05T14:23:58.967Z,34.50
2018-11-05T14:26:28.054Z,34.50
2018-11-05T14:28:57.840Z,34.50
2018-11-05T14:31:27.095Z,34.50
2018-11-05T14:33:57.299Z,34.60
2018-11-05T14:36:26.744Z,34.60
2018-11-05T14:38:55.793Z,34.60
2018-11-05T14:41:25.018Z,34.50
2018-11-05T14:43:54.723Z,34.60
2018-11-05T14:46:23.768Z,34.60
2018-11-05T14:48:53.107Z,34.60
2018-11-05T14:51:22.307Z,34.70
2018-11-05T14:53:52.474Z,34.50
2018-11-05T14:56:21.678Z,34.60
2018-11-05T14:58:51.402Z,34.60
2018-11-05T15:01:20.531Z,35.30
2018-11-05T15:03:49.622Z,34.60
2018-11-05T15:06:19.008Z,34.60
2018-11-05T15:08:49.218Z,34.70
2018-11-05T15:11:19.008Z,34.70
2018-11-05T15:13:48.159Z,34.80
2018-11-05T15:16:17.275Z,34.80
2018-11-05T15:18:46.876Z,34.80
2018-11-05T15:21:15.835Z,34.90
2018-11-05T15:23:46.242Z,34.90
2018-11-05T15:26:15.426Z,34.90
2018-11-05T15:28:45.035Z,35.00
2018-11-05T15:31:15.506Z,35.00
2018-11-05T15:33:45.606Z,34.90
2018-11-05T15:36:14.619Z,35.00
2018-11-05T15:38:43.787Z,35.00
2018-11-05T15:41:12.934Z,35.00
2018-11-05T15:43:43.746Z,35.00
2018-11-05T15:46:13.798Z,35.00
2018-11-05T15:48:43.363Z,35.10
2018-11-05T15:51:12.603Z,35.10
2018-11-05T15:53:42.473Z,35.10
2018-11-05T15:56:12.244Z,35.10
2018-11-05T15:58:41.346Z,35.10
2018-11-05T16:01:10.421Z,35.10
2018-11-05T16:03:39.518Z,35.10
2018-11-05T16:06:09.707Z,35.10
2018-11-05T16:08:40.390Z,35.10
2018-11-05T16:11:09.478Z,35.20
2018-11-05T16:13:39.342Z,35.20
2018-11-05T16:16:08.566Z,35.20
2018-11-05T16:18:38.283Z,35.30
2018-11-05T16:21:07.943Z,35.20
2018-11-05T16:23:37.670Z,35.30
2018-11-05T16:26:06.946Z,35.30
2018-11-05T16:28:36.265Z,35.30
2018-11-05T16:31:06.402Z,35.30
2018-11-05T16:33:36.243Z,35.40
2018-11-05T16:36:05.838Z,35.40
2018-11-05T16:38:35.042Z,35.50
2018-11-05T16:41:04.090Z,35.60
2018-11-05T16:43:34.130Z,35.60
2018-11-05T16:46:03.203Z,35.60
2018-11-05T16:48:33.030Z,35.60
2018-11-05T16:51:02.165Z,35.70
2018-11-05T16:53:32.312Z,35.70
2018-11-05T16:56:02.257Z,35.70
2018-11-05T16:58:31.467Z,35.70
2018-11-05T17:01:00.996Z,35.70
2018-11-05T17:03:30.885Z,35.80
2018-11-05T17:06:00.050Z,35.80
2018-11-05T17:08:29.987Z,35.80
2018-11-05T17:10:59.261Z,35.80
2018-11-05T17:13:29.084Z,35.90
2018-11-05T17:15:59.093Z,35.90
2018-11-05T17:18:28.183Z,35.90
2018-11-05T17:20:57.454Z,35.90
2018-11-05T17:23:28.402Z,35.90
2018-11-05T17:25:57.520Z,35.90
2018-11-05T17:28:26.627Z,35.90
2018-11-05T17:30:56.883Z,36.00
2018-11-05T17:33:26.543Z,35.90
2018-11-05T17:35:56.316Z,35.90
2018-11-05T17:38:25.644Z,36.00
2018-11-05T17:40:55.710Z,36.00
2018-11-05T17:43:25.669Z,36.00
2018-11-05T17:45:54.866Z,36.00
2018-11-05T17:48:23.974Z,36.00
2018-11-05T17:50:54.089Z,36.00
2018-11-05T17:53:24.380Z,36.10
2018-11-05T17:55:54.577Z,36.20
2018-11-05T17:58:25.314Z,36.20
2018-11-05T18:00:55.976Z,36.20
2018-11-05T18:03:25.270Z,36.10
2018-11-05T18:05:54.358Z,36.20
2018-11-05T18:08:24.505Z,36.10
2018-11-05T18:10:53.578Z,36.10
2018-11-05T18:13:22.675Z,36.10
2018-11-05T18:15:51.775Z,36.10
2018-11-05T18:18:20.869Z,36.10
2018-11-05T18:20:50.201Z,36.10
2018-11-05T18:23:20.055Z,36.10
2018-11-05T18:25:51.626Z,36.10
2018-11-05T18:28:20.744Z,36.00
2018-11-05T18:30:51.545Z,36.10
2018-11-05T18:33:21.870Z,36.10
2018-11-05T18:35:51.495Z,36.10
2018-11-05T18:38:21.322Z,36.20
2018-11-05T18:40:51.046Z,36.20
2018-11-05T18:43:20.955Z,36.20
2018-11-05T18:45:50.299Z,36.20
2018-11-05T18:48:20.153Z,36.80
2018-11-05T18:50:49.730Z,36.20
2018-11-05T18:53:19.234Z,36.20
2018-11-05T18:55:48.602Z,35.40
2018-11-05T18:58:19.682Z,36.20
2018-11-05T19:00:48.976Z,36.10
2018-11-05T19:03:18.163Z,36.10
2018-11-05T19:05:47.301Z,36.10
2018-11-05T19:08:16.959Z,36.20
2018-11-05T19:10:47.011Z,36.10
2018-11-05T19:13:16.869Z,36.20
2018-11-05T19:15:46.786Z,36.20
2018-11-05T19:18:15.954Z,36.20
2018-11-05T19:20:45.142Z,36.30
2018-11-05T19:23:15.064Z,36.30
2018-11-05T19:25:43.981Z,36.40
2018-11-05T19:28:13.978Z,36.20
2018-11-05T19:30:44.157Z,36.40
2018-11-05T19:33:14.708Z,36.40
2018-11-05T19:35:45.237Z,36.40
2018-11-05T19:38:14.737Z,36.30
2018-11-05T19:40:45.237Z,36.30
2018-11-05T19:43:14.917Z,36.40
2018-11-05T19:45:45.183Z,36.40
2018-11-05T19:48:14.285Z,36.30
2018-11-05T19:50:44.613Z,36.40
2018-11-05T19:53:14.404Z,37.10
2018-11-05T19:55:43.837Z,37.50
2018-11-05T19:58:13.525Z,37.80
2018-11-05T20:00:43.467Z,37.60
2018-11-05T20:03:12.512Z,37.80
2018-11-05T20:05:41.685Z,37.90
2018-11-05T20:08:12.256Z,38.00
2018-11-05T20:10:42.312Z,37.80
2018-11-05T20:13:12.364Z,37.70
2018-11-05T20:15:41.541Z,37.70
2018-11-05T20:18:10.832Z,37.70
2018-11-05T20:20:40.745Z,37.90
2018-11-05T20:23:10.360Z,37.70
2018-11-05T20:25:39.593Z,38.10
2018-11-05T20:28:09.336Z,38.00
2018-11-05T20:30:39.107Z,38.20
2018-11-05T20:33:09.459Z,38.20
2018-11-05T20:35:39.463Z,38.00
2018-11-05T20:38:08.617Z,37.70
2018-11-05T20:40:39.033Z,38.00
2018-11-05T20:43:08.141Z,38.00
2018-11-05T20:45:38.054Z,38.10
2018-11-05T20:48:07.217Z,37.90
2018-11-05T20:50:36.403Z,38.00
2018-11-05T20:53:06.473Z,37.60
2018-11-05T20:55:35.574Z,37.90
2018-11-05T20:58:05.323Z,37.70
2018-11-05T21:00:34.895Z,37.80
2018-11-05T21:03:04.011Z,37.70
2018-11-05T21:05:33.344Z,37.60
2018-11-05T21:08:03.910Z,38.10
2018-11-05T21:10:33.022Z,37.70
2018-11-05T21:13:02.126Z,37.60
2018-11-05T21:15:31.878Z,37.60
2018-11-05T21:18:02.161Z,37.60
2018-11-05T21:20:31.970Z,37.40
2018-11-05T21:23:02.140Z,37.40
2018-11-05T21:25:31.293Z,37.40
2018-11-05T21:28:01.238Z,37.40
2018-11-05T21:30:31.542Z,37.30
2018-11-05T21:33:02.234Z,37.40
2018-11-05T21:35:31.859Z,37.40
2018-11-05T21:38:01.052Z,37.20
2018-11-05T21:40:30.928Z,37.30
2018-11-05T21:43:00.222Z,37.20
2018-11-05T21:45:30.115Z,37.20
2018-11-05T21:47:59.226Z,37.10
2018-11-05T21:50:29.275Z,37.10
2018-11-05T21:52:59.702Z,37.10
2018-11-05T21:55:30.538Z,37.10
2018-11-05T21:58:00.558Z,37.20
2018-11-05T22:00:30.063Z,37.10
2018-11-05T22:03:00.836Z,37.20
2018-11-05T22:05:31.303Z,37.10
2018-11-05T22:08:00.430Z,37.20
2018-11-05T22:10:31.429Z,37.20
2018-11-05T22:13:00.774Z,37.20
2018-11-05T22:15:34.802Z,37.20
2018-11-05T22:18:04.825Z,37.20
2018-11-05T22:20:34.028Z,37.20
2018-11-05T22:23:04.286Z,37.50
2018-11-05T22:25:33.417Z,37.40
2018-11-05T22:28:02.642Z,37.10
2018-11-05T22:30:34.025Z,37.10
2018-11-05T22:33:03.953Z,37.80
2018-11-05T22:35:34.119Z,37.10
2018-11-05T22:38:03.347Z,37.10
2018-11-05T22:40:33.290Z,37.10
2018-11-05T22:43:02.334Z,37.10
2018-11-05T22:45:32.690Z,37.10
2018-11-05T22:48:02.819Z,37.00
2018-11-05T22:50:31.987Z,37.10
2018-11-05T22:53:02.134Z,37.10
2018-11-05T22:55:31.898Z,37.10
2018-11-05T22:58:02.221Z,37.00
2018-11-05T23:00:36.693Z,37.00
2018-11-05T23:03:11.303Z,37.00
2018-11-05T23:05:41.525Z,37.00
2018-11-05T23:08:11.965Z,37.00
2018-11-05T23:10:42.506Z,37.00
2018-11-05T23:13:11.746Z,37.00
2018-11-05T23:15:41.530Z,36.90
2018-11-05T23:18:10.934Z,36.90
2018-11-05T23:20:40.010Z,36.90
2018-11-05T23:23:09.613Z,36.90
2018-11-05T23:25:38.692Z,36.80
2018-11-05T23:28:08.514Z,36.90
2018-11-05T23:30:38.639Z,36.90
2018-11-05T23:33:09.149Z,36.80
2018-11-05T23:35:39.297Z,37.50
2018-11-05T23:38:08.418Z,36.80
2018-11-05T23:40:38.471Z,36.80
2018-11-05T23:43:08.934Z,36.70
2018-11-05T23:45:39.037Z,37.60
2018-11-05T23:48:08.203Z,36.80
2018-11-05T23:50:37.893Z,36.80
2018-11-05T23:53:07.892Z,36.80
2018-11-05T23:55:37.874Z,36.50
2018-11-05T23:58:07.853Z,36.70
